• Join FlightAware (Why Join?)
  • Login
  • US Flag 
 
12:27PM EST


 

Airport Tracker/Info


-or-


 

Live Flight TrackerFlight Track Log ✈ KAP528 ✈ 07-May-2013 ✈ KALB - KOGS

Flight Track Log - Related Links

Times and Time Zones

All times are in EDT time to prevent confusion due to time zone crossing. See the KAP528 flight status page for this flight to view local times or setup timezone preferences in your user account.

Time Position Orientation Groundspeed Altitude Reporting Facility
EDT Latitude Longitude Course Direction KTS MPH feet Rate Location/Type
10:39AM 42.7006 -73.8103 282° West 129 148 2,500  Level Boston Center
10:40AM 42.7083 -73.8586 282° West 134 154 3,800 1,080 Climbing Boston Center
10:40AM 42.7247 -73.8900 305° West 133 153 4,500 720 Climbing Boston Center
10:41AM 42.7578 -73.9133 333° Northwest 137 158 5,200 660 Climbing Boston Center
10:42AM 42.7947 -73.9453 328° Northwest 139 160 6,000 660 Climbing Boston Center
10:43AM 42.8278 -73.9744 327° Northwest 144 166 6,700 660 Climbing Boston Center
10:44AM 42.8628 -74.0008 331° Northwest 151 174 7,300 720 Climbing Boston Center
10:45AM 42.8978 -74.0300 329° Northwest 149 171 8,100 720 Climbing Boston Center
10:46AM 42.9308 -74.0594 327° Northwest 150 173 8,700 600 Climbing Boston Center
10:47AM 42.9700 -74.0917 329° Northwest 158 182 9,400 660 Climbing Boston Center
10:48AM 43.0092 -74.1211 331° Northwest 161 185 10,100 720 Climbing Boston Center
10:49AM 43.0278 -74.1328 335° Northwest 161 185 10,500 300 Climbing Boston Center
10:50AM 43.0647 -74.1622 330° Northwest 172 198 10,600  Climbing Boston Center
10:51AM 43.1142 -74.2036 329° Northwest 185 213 10,600 -60 Level Boston Center
10:52AM 43.1553 -74.2361 330° Northwest 185 213 10,500 -60 Descending Boston Center
10:53AM 43.2028 -74.2717 331° Northwest 180 207 10,500  Level Boston Center
10:54AM 43.2458 -74.3014 333° Northwest 180 207 10,600  Climbing Boston Center
10:55AM 43.2953 -74.3372 332° Northwest 180 207 10,600 -60 Level Boston Center
10:56AM 43.3344 -74.3669 331° Northwest 180 207 10,500 -60 Descending Boston Center
10:57AM 43.3797 -74.4083 326° Northwest 180 207 10,500  Level Boston Center
10:58AM 43.4247 -74.4469 328° Northwest 185 213 10,600  Climbing Boston Center
10:59AM 43.4681 -74.4828 329° Northwest 185 213 10,600  Level Boston Center
11:00AM 43.5111 -74.5186 329° Northwest 185 213 10,600  Level Boston Center
11:01AM 43.5542 -74.5514 331° Northwest 185 213 10,600 -60 Level Boston Center
11:02AM 43.5972 -74.5875 329° Northwest 185 213 10,500 -60 Descending Boston Center
11:03AM 43.6425 -74.6206 332° Northwest 180 207 10,500  Level Boston Center
11:04AM 43.6856 -74.6539 331° Northwest 180 207 10,600  Climbing Boston Center
11:05AM 43.7267 -74.6869 330° Northwest 180 207 10,600  Level Boston Center
11:06AM 43.7697 -74.7231 329° Northwest 180 207 10,600  Level Boston Center
11:07AM 43.8131 -74.7533 333° Northwest 175 201 10,600  Level Boston Center
11:08AM 43.8519 -74.7867 328° Northwest 175 201 10,600 -60 Level Boston Center
11:09AM 43.8950 -74.8200 331° Northwest 175 201 10,500  Descending Boston Center
11:10AM 43.9358 -74.8533 330° Northwest 175 201 10,600  Climbing Boston Center
11:11AM 43.9789 -74.8867 331° Northwest 170 196 10,500 -120 Descending Boston Center
11:12AM 44.0200 -74.9203 330° Northwest 170 196 10,400 -240 Descending Boston Center
11:13AM 44.0547 -74.9478 330° Northwest 175 201 10,100 -420 Descending Boston Center
11:14AM 44.1081 -74.9933 328° Northwest 180 207 9,600 -600 Descending Boston Center
11:15AM 44.1528 -75.0328 328° Northwest 180 207 9,000 -600 Descending Boston Center
11:16AM 44.2000 -75.0667 333° Northwest 180 207 8,500 -660 Descending Boston Center
11:17AM 44.2472 -75.1006 333° Northwest 180 207 7,800 -660 Descending Boston Center
11:18AM 44.2944 -75.1319 335° Northwest 180 207 7,200 -600 Descending Boston Center